sensor_id;sensor_type;location;lat;lon;timestamp;P1;durP1;ratioP1;P2;durP2;ratioP2
65279;SDS011;51878;55.748;48.742;2023-09-19T01:01:23;3.92;;;3.00;;
65279;SDS011;51878;55.748;48.742;2023-09-19T01:06:27;3.75;;;2.65;;
65279;SDS011;51878;55.748;48.742;2023-09-19T01:11:33;2.65;;;2.38;;
65279;SDS011;51878;55.748;48.742;2023-09-19T01:32:06;2.63;;;2.38;;
65279;SDS011;51878;55.748;48.742;2023-09-19T01:37:11;3.40;;;2.30;;
65279;SDS011;51878;55.748;48.742;2023-09-19T01:42:35;4.68;;;2.55;;
65279;SDS011;51878;55.748;48.742;2023-09-19T01:47:54;2.78;;;2.38;;
65279;SDS011;51878;55.748;48.742;2023-09-19T01:53:05;3.22;;;2.92;;
65279;SDS011;51878;55.748;48.742;2023-09-19T02:03:36;3.63;;;2.40;;
65279;SDS011;51878;55.748;48.742;2023-09-19T02:08:41;4.30;;;2.78;;
65279;SDS011;51878;55.748;48.742;2023-09-19T02:13:43;5.32;;;2.25;;
65279;SDS011;51878;55.748;48.742;2023-09-19T02:18:48;3.40;;;2.55;;
65279;SDS011;51878;55.748;48.742;2023-09-19T02:23:51;3.60;;;2.53;;
65279;SDS011;51878;55.748;48.742;2023-09-19T02:28:53;6.28;;;2.55;;
65279;SDS011;51878;55.748;48.742;2023-09-19T02:33:56;4.53;;;2.25;;
65279;SDS011;51878;55.748;48.742;2023-09-19T02:38:58;3.67;;;2.60;;
65279;SDS011;51878;55.748;48.742;2023-09-19T02:44:00;4.43;;;2.50;;
65279;SDS011;51878;55.748;48.742;2023-09-19T02:49:03;2.83;;;2.35;;
65279;SDS011;51878;55.748;48.742;2023-09-19T02:54:08;6.15;;;2.33;;
65279;SDS011;51878;55.748;48.742;2023-09-19T02:59:10;2.47;;;2.28;;
65279;SDS011;51878;55.748;48.742;2023-09-19T03:04:13;3.13;;;2.13;;
65279;SDS011;51878;55.748;48.742;2023-09-19T03:09:21;4.45;;;1.80;;
65279;SDS011;51878;55.748;48.742;2023-09-19T03:14:25;4.75;;;2.25;;
65279;SDS011;51878;55.748;48.742;2023-09-19T03:19:27;2.45;;;2.00;;
65279;SDS011;51878;55.748;48.742;2023-09-19T03:24:30;5.28;;;2.70;;
65279;SDS011;51878;55.748;48.742;2023-09-19T03:29:33;2.90;;;1.77;;
65279;SDS011;51878;55.748;48.742;2023-09-19T03:34:36;3.78;;;1.85;;
65279;SDS011;51878;55.748;48.742;2023-09-19T03:39:44;3.30;;;2.20;;
65279;SDS011;51878;55.748;48.742;2023-09-19T03:44:46;7.80;;;1.98;;
65279;SDS011;51878;55.748;48.742;2023-09-19T03:49:49;2.20;;;1.92;;
65279;SDS011;51878;55.748;48.742;2023-09-19T03:54:51;4.30;;;2.10;;
65279;SDS011;51878;55.748;48.742;2023-09-19T03:59:53;2.78;;;1.80;;
65279;SDS011;51878;55.748;48.742;2023-09-19T04:04:56;5.65;;;1.63;;
65279;SDS011;51878;55.748;48.742;2023-09-19T04:09:58;4.47;;;1.90;;
65279;SDS011;51878;55.748;48.742;2023-09-19T04:15:00;4.68;;;1.70;;
65279;SDS011;51878;55.748;48.742;2023-09-19T04:20:05;1.35;;;1.25;;
65279;SDS011;51878;55.748;48.742;2023-09-19T04:25:09;1.60;;;1.50;;
65279;SDS011;51878;55.748;48.742;2023-09-19T04:30:12;2.15;;;1.95;;
65279;SDS011;51878;55.748;48.742;2023-09-19T04:35:14;7.25;;;1.85;;
65279;SDS011;51878;55.748;48.742;2023-09-19T04:40:16;2.42;;;1.70;;
65279;SDS011;51878;55.748;48.742;2023-09-19T04:45:20;5.00;;;1.98;;
65279;SDS011;51878;55.748;48.742;2023-09-19T04:50:22;3.42;;;1.83;;
65279;SDS011;51878;55.748;48.742;2023-09-19T04:55:25;1.95;;;1.50;;
65279;SDS011;51878;55.748;48.742;2023-09-19T05:00:28;5.60;;;1.77;;
65279;SDS011;51878;55.748;48.742;2023-09-19T05:05:32;6.38;;;1.33;;
65279;SDS011;51878;55.748;48.742;2023-09-19T05:10:36;1.13;;;1.13;;
65279;SDS011;51878;55.748;48.742;2023-09-19T05:15:41;4.50;;;1.30;;
65279;SDS011;51878;55.748;48.742;2023-09-19T05:20:43;1.27;;;1.13;;
65279;SDS011;51878;55.748;48.742;2023-09-19T05:25:45;1.30;;;1.20;;
65279;SDS011;51878;55.748;48.742;2023-09-19T05:30:48;7.68;;;1.73;;
65279;SDS011;51878;55.748;48.742;2023-09-19T05:35:50;6.85;;;1.50;;
65279;SDS011;51878;55.748;48.742;2023-09-19T05:40:53;1.20;;;1.10;;
65279;SDS011;51878;55.748;48.742;2023-09-19T05:45:55;3.65;;;1.15;;
65279;SDS011;51878;55.748;48.742;2023-09-19T05:50:58;3.15;;;1.25;;
65279;SDS011;51878;55.748;48.742;2023-09-19T05:56:00;6.13;;;2.10;;
65279;SDS011;51878;55.748;48.742;2023-09-19T06:01:03;1.65;;;1.10;;
65279;SDS011;51878;55.748;48.742;2023-09-19T06:06:05;5.13;;;1.10;;
65279;SDS011;51878;55.748;48.742;2023-09-19T06:11:08;2.03;;;1.00;;
65279;SDS011;51878;55.748;48.742;2023-09-19T06:16:11;2.03;;;1.20;;
65279;SDS011;51878;55.748;48.742;2023-09-19T06:21:13;3.78;;;1.00;;
65279;SDS011;51878;55.748;48.742;2023-09-19T06:26:15;1.75;;;0.70;;
65279;SDS011;51878;55.748;48.742;2023-09-19T06:31:18;2.60;;;0.73;;
65279;SDS011;51878;55.748;48.742;2023-09-19T06:36:22;0.85;;;0.80;;
65279;SDS011;51878;55.748;48.742;2023-09-19T06:41:25;0.90;;;0.90;;
65279;SDS011;51878;55.748;48.742;2023-09-19T06:46:27;3.03;;;1.00;;
65279;SDS011;51878;55.748;48.742;2023-09-19T06:51:34;1.45;;;0.63;;
65279;SDS011;51878;55.748;48.742;2023-09-19T06:56:37;2.08;;;0.80;;
65279;SDS011;51878;55.748;48.742;2023-09-19T07:01:40;3.72;;;1.92;;
65279;SDS011;51878;55.748;48.742;2023-09-19T07:06:43;0.80;;;0.80;;
65279;SDS011;51878;55.748;48.742;2023-09-19T07:11:47;1.63;;;0.90;;
65279;SDS011;51878;55.748;48.742;2023-09-19T07:16:52;2.58;;;1.00;;
65279;SDS011;51878;55.748;48.742;2023-09-19T07:21:54;5.15;;;0.90;;
65279;SDS011;51878;55.748;48.742;2023-09-19T07:26:56;2.53;;;1.13;;
65279;SDS011;51878;55.748;48.742;2023-09-19T07:31:59;2.55;;;1.00;;
65279;SDS011;51878;55.748;48.742;2023-09-19T07:37:01;1.23;;;0.80;;
65279;SDS011;51878;55.748;48.742;2023-09-19T07:42:04;0.70;;;0.70;;
65279;SDS011;51878;55.748;48.742;2023-09-19T07:47:08;2.97;;;1.00;;
65279;SDS011;51878;55.748;48.742;2023-09-19T07:52:11;1.20;;;0.90;;
65279;SDS011;51878;55.748;48.742;2023-09-19T07:57:14;2.33;;;1.17;;
65279;SDS011;51878;55.748;48.742;2023-09-19T08:02:17;3.97;;;0.95;;
65279;SDS011;51878;55.748;48.742;2023-09-19T08:07:20;6.07;;;1.00;;
65279;SDS011;51878;55.748;48.742;2023-09-19T08:12:22;2.00;;;0.90;;
65279;SDS011;51878;55.748;48.742;2023-09-19T08:17:24;1.92;;;1.00;;
65279;SDS011;51878;55.748;48.742;2023-09-19T08:22:27;1.65;;;0.90;;
65279;SDS011;51878;55.748;48.742;2023-09-19T08:27:29;1.10;;;1.00;;
65279;SDS011;51878;55.748;48.742;2023-09-19T08:32:32;3.05;;;0.80;;
65279;SDS011;51878;55.748;48.742;2023-09-19T08:37:34;0.93;;;0.82;;
65279;SDS011;51878;55.748;48.742;2023-09-19T08:42:49;2.42;;;1.42;;
65279;SDS011;51878;55.748;48.742;2023-09-19T08:48:42;2.05;;;0.70;;
65279;SDS011;51878;55.748;48.742;2023-09-19T08:59:00;1.23;;;0.82;;
65279;SDS011;51878;55.748;48.742;2023-09-19T09:04:04;3.88;;;1.00;;
65279;SDS011;51878;55.748;48.742;2023-09-19T09:09:15;2.70;;;1.42;;
65279;SDS011;51878;55.748;48.742;2023-09-19T09:14:18;1.17;;;0.93;;
65279;SDS011;51878;55.748;48.742;2023-09-19T09:19:23;5.75;;;0.90;;
65279;SDS011;51878;55.748;48.742;2023-09-19T09:24:27;4.47;;;0.95;;
65279;SDS011;51878;55.748;48.742;2023-09-19T09:29:57;3.63;;;1.15;;
65279;SDS011;51878;55.748;48.742;2023-09-19T09:34:59;1.83;;;1.00;;
65279;SDS011;51878;55.748;48.742;2023-09-19T09:40:05;1.23;;;0.85;;
65279;SDS011;51878;55.748;48.742;2023-09-19T09:45:33;1.40;;;1.30;;
65279;SDS011;51878;55.748;48.742;2023-09-19T09:50:45;1.95;;;1.10;;
65279;SDS011;51878;55.748;48.742;2023-09-19T10:01:11;3.63;;;1.10;;
65279;SDS011;51878;55.748;48.742;2023-09-19T10:06:17;2.92;;;1.98;;
65279;SDS011;51878;55.748;48.742;2023-09-19T10:11:25;1.83;;;1.10;;
65279;SDS011;51878;55.748;48.742;2023-09-19T10:16:32;2.35;;;1.08;;
65279;SDS011;51878;55.748;48.742;2023-09-19T10:21:37;1.50;;;1.00;;
65279;SDS011;51878;55.748;48.742;2023-09-19T10:26:41;1.67;;;1.20;;
65279;SDS011;51878;55.748;48.742;2023-09-19T10:31:46;2.50;;;1.15;;
65279;SDS011;51878;55.748;48.742;2023-09-19T10:36:50;1.15;;;1.08;;
65279;SDS011;51878;55.748;48.742;2023-09-19T10:41:55;2.90;;;1.00;;
65279;SDS011;51878;55.748;48.742;2023-09-19T10:47:12;2.80;;;1.00;;
65279;SDS011;51878;55.748;48.742;2023-09-19T10:52:17;1.25;;;0.90;;
65279;SDS011;51878;55.748;48.742;2023-09-19T10:57:25;3.42;;;1.10;;
65279;SDS011;51878;55.748;48.742;2023-09-19T11:02:29;2.92;;;1.00;;
65279;SDS011;51878;55.748;48.742;2023-09-19T11:07:33;1.90;;;1.00;;
65279;SDS011;51878;55.748;48.742;2023-09-19T11:13:25;2.35;;;1.20;;
65279;SDS011;51878;55.748;48.742;2023-09-19T11:18:50;3.75;;;1.20;;
65279;SDS011;51878;55.748;48.742;2023-09-19T11:24:38;2.35;;;1.20;;
65279;SDS011;51878;55.748;48.742;2023-09-19T11:29:27;2.30;;;1.20;;
65279;SDS011;51878;55.748;48.742;2023-09-19T11:34:41;3.35;;;1.42;;
65279;SDS011;51878;55.748;48.742;2023-09-19T11:40:07;3.47;;;1.10;;
65279;SDS011;51878;55.748;48.742;2023-09-19T11:50:51;4.05;;;1.00;;
65279;SDS011;51878;55.748;48.742;2023-09-19T11:55:56;2.78;;;1.10;;
65279;SDS011;51878;55.748;48.742;2023-09-19T12:01:00;3.15;;;0.90;;
65279;SDS011;51878;55.748;48.742;2023-09-19T12:06:12;1.67;;;0.98;;
65279;SDS011;51878;55.748;48.742;2023-09-19T12:11:18;12.32;;;1.40;;
65279;SDS011;51878;55.748;48.742;2023-09-19T12:16:22;1.42;;;1.20;;
65279;SDS011;51878;55.748;48.742;2023-09-19T12:21:26;1.23;;;1.02;;
65279;SDS011;51878;55.748;48.742;2023-09-19T12:26:30;3.42;;;1.17;;
65279;SDS011;51878;55.748;48.742;2023-09-19T12:31:49;4.22;;;1.15;;
65279;SDS011;51878;55.748;48.742;2023-09-19T12:37:06;2.38;;;1.35;;
65279;SDS011;51878;55.748;48.742;2023-09-19T12:42:15;7.25;;;1.40;;
65279;SDS011;51878;55.748;48.742;2023-09-19T12:47:22;2.97;;;1.20;;
65279;SDS011;51878;55.748;48.742;2023-09-19T12:52:26;4.85;;;1.10;;
65279;SDS011;51878;55.748;48.742;2023-09-19T12:57:38;2.00;;;0.93;;
65279;SDS011;51878;55.748;48.742;2023-09-19T13:03:08;1.63;;;1.35;;
65279;SDS011;51878;55.748;48.742;2023-09-19T13:13:34;2.83;;;1.05;;
65279;SDS011;51878;55.748;48.742;2023-09-19T13:23:55;2.60;;;1.30;;
65279;SDS011;51878;55.748;48.742;2023-09-19T13:29:17;2.35;;;1.35;;
65279;SDS011;51878;55.748;48.742;2023-09-19T13:34:20;3.40;;;1.00;;
65279;SDS011;51878;55.748;48.742;2023-09-19T13:39:23;2.58;;;1.00;;
65279;SDS011;51878;55.748;48.742;2023-09-19T13:44:28;2.60;;;1.00;;
65279;SDS011;51878;55.748;48.742;2023-09-19T13:49:31;1.73;;;1.30;;
65279;SDS011;51878;55.748;48.742;2023-09-19T13:54:34;1.20;;;1.10;;
65279;SDS011;51878;55.748;48.742;2023-09-19T13:59:36;2.05;;;0.93;;
65279;SDS011;51878;55.748;48.742;2023-09-19T14:04:38;2.70;;;1.13;;
65279;SDS011;51878;55.748;48.742;2023-09-19T14:09:41;2.72;;;1.15;;
65279;SDS011;51878;55.748;48.742;2023-09-19T14:14:43;2.83;;;1.48;;
65279;SDS011;51878;55.748;48.742;2023-09-19T14:19:47;3.35;;;1.42;;
65279;SDS011;51878;55.748;48.742;2023-09-19T14:24:49;7.47;;;1.30;;
65279;SDS011;51878;55.748;48.742;2023-09-19T14:29:51;2.40;;;1.40;;
65279;SDS011;51878;55.748;48.742;2023-09-19T14:34:53;2.85;;;1.33;;
65279;SDS011;51878;55.748;48.742;2023-09-19T14:39:55;4.78;;;1.35;;
65279;SDS011;51878;55.748;48.742;2023-09-19T14:44:58;4.40;;;1.30;;
65279;SDS011;51878;55.748;48.742;2023-09-19T14:50:01;1.52;;;1.10;;
65279;SDS011;51878;55.748;48.742;2023-09-19T14:55:08;1.30;;;1.20;;
65279;SDS011;51878;55.748;48.742;2023-09-19T15:00:16;1.73;;;1.42;;
65279;SDS011;51878;55.748;48.742;2023-09-19T15:05:19;5.97;;;3.03;;
65279;SDS011;51878;55.748;48.742;2023-09-19T15:10:21;3.97;;;1.45;;
65279;SDS011;51878;55.748;48.742;2023-09-19T15:15:24;8.45;;;1.60;;
65279;SDS011;51878;55.748;48.742;2023-09-19T15:20:26;2.60;;;1.90;;
65279;SDS011;51878;55.748;48.742;2023-09-19T15:25:28;4.55;;;1.55;;
65279;SDS011;51878;55.748;48.742;2023-09-19T15:30:31;9.57;;;2.35;;
65279;SDS011;51878;55.748;48.742;2023-09-19T15:35:33;3.08;;;1.80;;
65279;SDS011;51878;55.748;48.742;2023-09-19T15:40:45;6.90;;;2.55;;
65279;SDS011;51878;55.748;48.742;2023-09-19T15:45:49;4.50;;;2.08;;
65279;SDS011;51878;55.748;48.742;2023-09-19T15:50:52;5.20;;;2.38;;
65279;SDS011;51878;55.748;48.742;2023-09-19T15:55:54;12.73;;;2.50;;
65279;SDS011;51878;55.748;48.742;2023-09-19T16:00:56;8.95;;;2.22;;
65279;SDS011;51878;55.748;48.742;2023-09-19T16:05:59;4.95;;;2.28;;
65279;SDS011;51878;55.748;48.742;2023-09-19T16:11:01;6.07;;;2.05;;
65279;SDS011;51878;55.748;48.742;2023-09-19T16:16:04;4.28;;;1.88;;
65279;SDS011;51878;55.748;48.742;2023-09-19T16:21:07;5.72;;;1.85;;
65279;SDS011;51878;55.748;48.742;2023-09-19T16:26:13;5.07;;;1.80;;
65279;SDS011;51878;55.748;48.742;2023-09-19T16:31:16;2.92;;;1.60;;
65279;SDS011;51878;55.748;48.742;2023-09-19T16:36:19;2.85;;;1.80;;
65279;SDS011;51878;55.748;48.742;2023-09-19T16:41:22;2.72;;;1.52;;
65279;SDS011;51878;55.748;48.742;2023-09-19T16:46:25;6.88;;;1.70;;
65279;SDS011;51878;55.748;48.742;2023-09-19T16:51:27;4.78;;;1.52;;
65279;SDS011;51878;55.748;48.742;2023-09-19T16:56:30;2.35;;;1.48;;
65279;SDS011;51878;55.748;48.742;2023-09-19T17:01:35;3.22;;;1.33;;
65279;SDS011;51878;55.748;48.742;2023-09-19T17:06:37;2.08;;;1.40;;
65279;SDS011;51878;55.748;48.742;2023-09-19T17:11:41;2.65;;;1.40;;
65279;SDS011;51878;55.748;48.742;2023-09-19T17:16:43;1.10;;;1.00;;
65279;SDS011;51878;55.748;48.742;2023-09-19T17:21:46;5.90;;;1.50;;
65279;SDS011;51878;55.748;48.742;2023-09-19T17:26:48;4.95;;;1.25;;
65279;SDS011;51878;55.748;48.742;2023-09-19T17:31:51;3.15;;;1.15;;
65279;SDS011;51878;55.748;48.742;2023-09-19T17:36:53;1.55;;;1.05;;
65279;SDS011;51878;55.748;48.742;2023-09-19T17:41:56;1.65;;;1.00;;
65279;SDS011;51878;55.748;48.742;2023-09-19T17:46:58;2.00;;;1.40;;
65279;SDS011;51878;55.748;48.742;2023-09-19T17:52:00;3.17;;;1.50;;
65279;SDS011;51878;55.748;48.742;2023-09-19T17:57:03;1.10;;;1.10;;
65279;SDS011;51878;55.748;48.742;2023-09-19T18:02:05;1.33;;;1.20;;
65279;SDS011;51878;55.748;48.742;2023-09-19T18:07:07;5.65;;;1.20;;
65279;SDS011;51878;55.748;48.742;2023-09-19T18:12:10;1.17;;;1.08;;
65279;SDS011;51878;55.748;48.742;2023-09-19T18:17:13;2.70;;;1.10;;
65279;SDS011;51878;55.748;48.742;2023-09-19T18:22:15;2.35;;;1.17;;
65279;SDS011;51878;55.748;48.742;2023-09-19T18:27:19;2.20;;;1.10;;
65279;SDS011;51878;55.748;48.742;2023-09-19T18:32:22;4.63;;;1.20;;
65279;SDS011;51878;55.748;48.742;2023-09-19T18:37:25;2.33;;;1.10;;
65279;SDS011;51878;55.748;48.742;2023-09-19T18:42:28;1.10;;;1.00;;
65279;SDS011;51878;55.748;48.742;2023-09-19T18:47:31;1.77;;;1.13;;
65279;SDS011;51878;55.748;48.742;2023-09-19T18:52:33;1.83;;;1.10;;
65279;SDS011;51878;55.748;48.742;2023-09-19T18:57:36;2.05;;;1.25;;
65279;SDS011;51878;55.748;48.742;2023-09-19T19:02:38;3.25;;;1.40;;
65279;SDS011;51878;55.748;48.742;2023-09-19T19:07:41;5.82;;;1.70;;
65279;SDS011;51878;55.748;48.742;2023-09-19T19:12:43;6.85;;;1.50;;
65279;SDS011;51878;55.748;48.742;2023-09-19T19:17:46;1.92;;;1.30;;
65279;SDS011;51878;55.748;48.742;2023-09-19T19:22:48;2.75;;;1.30;;
65279;SDS011;51878;55.748;48.742;2023-09-19T19:27:53;2.92;;;1.60;;
65279;SDS011;51878;55.748;48.742;2023-09-19T19:32:56;4.10;;;1.52;;
65279;SDS011;51878;55.748;48.742;2023-09-19T19:37:58;1.45;;;1.08;;
65279;SDS011;51878;55.748;48.742;2023-09-19T19:43:03;5.30;;;1.40;;
65279;SDS011;51878;55.748;48.742;2023-09-19T19:48:06;3.05;;;1.13;;
65279;SDS011;51878;55.748;48.742;2023-09-19T19:53:08;2.30;;;1.20;;
65279;SDS011;51878;55.748;48.742;2023-09-19T19:58:11;1.17;;;0.93;;
65279;SDS011;51878;55.748;48.742;2023-09-19T20:03:16;5.97;;;1.23;;
65279;SDS011;51878;55.748;48.742;2023-09-19T20:08:19;2.03;;;1.20;;
65279;SDS011;51878;55.748;48.742;2023-09-19T20:13:22;2.30;;;1.00;;
65279;SDS011;51878;55.748;48.742;2023-09-19T20:18:26;1.30;;;1.20;;
65279;SDS011;51878;55.748;48.742;2023-09-19T20:23:31;1.95;;;1.00;;
65279;SDS011;51878;55.748;48.742;2023-09-19T20:28:34;1.33;;;1.13;;
65279;SDS011;51878;55.748;48.742;2023-09-19T20:33:37;2.55;;;1.20;;
65279;SDS011;51878;55.748;48.742;2023-09-19T20:38:39;1.17;;;1.08;;
65279;SDS011;51878;55.748;48.742;2023-09-19T20:43:42;2.00;;;1.20;;
65279;SDS011;51878;55.748;48.742;2023-09-19T20:48:47;4.70;;;1.17;;
65279;SDS011;51878;55.748;48.742;2023-09-19T20:53:50;2.58;;;1.10;;
65279;SDS011;51878;55.748;48.742;2023-09-19T20:58:55;3.95;;;1.10;;
65279;SDS011;51878;55.748;48.742;2023-09-19T21:03:57;3.30;;;1.20;;
65279;SDS011;51878;55.748;48.742;2023-09-19T21:08:59;4.60;;;1.00;;
65279;SDS011;51878;55.748;48.742;2023-09-19T21:14:02;1.20;;;1.10;;
65279;SDS011;51878;55.748;48.742;2023-09-19T21:19:05;1.00;;;1.00;;
65279;SDS011;51878;55.748;48.742;2023-09-19T21:24:09;1.63;;;1.13;;
65279;SDS011;51878;55.748;48.742;2023-09-19T21:29:13;7.07;;;1.17;;
65279;SDS011;51878;55.748;48.742;2023-09-19T21:34:15;4.13;;;1.23;;
65279;SDS011;51878;55.748;48.742;2023-09-19T21:39:17;1.40;;;1.08;;
65279;SDS011;51878;55.748;48.742;2023-09-19T21:44:20;1.52;;;1.15;;
65279;SDS011;51878;55.748;48.742;2023-09-19T21:49:22;1.23;;;1.10;;
65279;SDS011;51878;55.748;48.742;2023-09-19T21:54:28;2.78;;;1.23;;
65279;SDS011;51878;55.748;48.742;2023-09-19T21:59:33;2.95;;;1.08;;
65279;SDS011;51878;55.748;48.742;2023-09-19T22:04:35;4.38;;;1.15;;
65279;SDS011;51878;55.748;48.742;2023-09-19T22:09:37;2.20;;;1.10;;
65279;SDS011;51878;55.748;48.742;2023-09-19T22:14:40;3.50;;;1.30;;
65279;SDS011;51878;55.748;48.742;2023-09-19T22:19:42;3.33;;;1.10;;
65279;SDS011;51878;55.748;48.742;2023-09-19T22:24:45;4.43;;;1.23;;
65279;SDS011;51878;55.748;48.742;2023-09-19T22:29:49;4.38;;;1.17;;
65279;SDS011;51878;55.748;48.742;2023-09-19T22:34:52;1.45;;;1.00;;
65279;SDS011;51878;55.748;48.742;2023-09-19T22:39:54;2.45;;;1.15;;
65279;SDS011;51878;55.748;48.742;2023-09-19T22:44:57;5.80;;;1.30;;
65279;SDS011;51878;55.748;48.742;2023-09-19T22:49:59;4.65;;;1.27;;
65279;SDS011;51878;55.748;48.742;2023-09-19T22:55:04;2.80;;;1.35;;
65279;SDS011;51878;55.748;48.742;2023-09-19T23:00:10;3.33;;;1.10;;
65279;SDS011;51878;55.748;48.742;2023-09-19T23:05:16;1.80;;;1.27;;
65279;SDS011;51878;55.748;48.742;2023-09-19T23:10:19;3.50;;;1.50;;
65279;SDS011;51878;55.748;48.742;2023-09-19T23:15:21;7.18;;;1.30;;
65279;SDS011;51878;55.748;48.742;2023-09-19T23:20:28;2.85;;;1.10;;
65279;SDS011;51878;55.748;48.742;2023-09-19T23:25:37;2.85;;;1.40;;
65279;SDS011;51878;55.748;48.742;2023-09-19T23:30:48;1.90;;;1.05;;
65279;SDS011;51878;55.748;48.742;2023-09-19T23:35:55;4.00;;;1.20;;
65279;SDS011;51878;55.748;48.742;2023-09-19T23:40:57;1.92;;;1.10;;
65279;SDS011;51878;55.748;48.742;2023-09-19T23:45:59;2.60;;;1.27;;
65279;SDS011;51878;55.748;48.742;2023-09-19T23:51:06;6.15;;;1.17;;
65279;SDS011;51878;55.748;48.742;2023-09-19T23:56:10;4.30;;;1.20;;
